Flight Track Log - Related Links

Times and Time Zones

All times are in EDT time to prevent confusion due to time zone crossing. See the N50KC flight status page for this flight to view local times or setup timezone preferences in your user account.

Time Position Orientation Groundspeed Altitude Reporting Facility
EDT Latitude Longitude Course Direction KTS MPH feet Rate Location/Type
Mon 09:02:11 PM 49.4667 -51.9500 63° Northeast 540 621 42,400  Level Gander Center
Mon 09:02:52 PM 49.5167 -51.8000 63° Northeast 550 633 42,700 483 Climbing Moncton Center
Mon 09:03:38 PM 49.5667 -51.6333 65° Northeast 550 633 43,100 453 Climbing Gander Center
Mon 09:04:38 PM 49.6167 -51.4333 69° East 550 633 43,500 300 Climbing Gander Center
Mon 09:05:38 PM 49.6833 -51.2167 64° Northeast 550 633 43,700 250 Climbing Gander Center
Mon 09:06:38 PM 49.7167 -51.0000 77° East 560 644 44,000 300 Climbing Gander Center
Mon 09:07:38 PM 49.7833 -50.7500 67° East 550 633 44,300 313 Climbing Gander Center
Mon 09:08:52 PM 49.8500 -50.4833 69° East 550 633 44,700 300 Climbing Moncton Center
Mon 09:09:38 PM 49.9000 -50.3000 67° East 550 633 44,900 170 Climbing Gander Center
Mon 09:10:38 PM 49.9500 -50.1167 67° East 550 633 45,000 50 Climbing Gander Center
Mon 09:11:38 PM 50.0000 -49.8833 71° East 540 621 45,000  Level Gander Center
Mon 09:12:00 PM 50.0000 -50.0000 60° Northeast 528 608 45,000  Level ETMS Enhanced Traffic Management System
Mon 09:12:38 PM 50.0833 -49.6833 60° Northeast 540 621 45,000  Level Gander Center
Mon 09:13:38 PM 50.1500 -49.4500 66° East 550 633 45,000  Level Gander Center
Mon 09:14:38 PM 50.2333 -49.2500 57° Northeast 540 621 45,000  Level Gander Center
Mon 09:15:38 PM 50.3000 -49.0667 60° Northeast 540 621 45,000  Level Gander Center
Mon 09:16:38 PM 50.3667 -48.8500 64° Northeast 540 621 45,000  Level Gander Center
Mon 09:17:38 PM 50.4500 -48.6333 59° Northeast 540 621 45,000  Level Gander Center
Mon 09:18:38 PM 50.5167 -48.4333 62° Northeast 550 633 45,000  Level Gander Center
Mon 09:19:38 PM 50.5667 -48.2333 68° East 540 621 45,000  Level Gander Center
Mon 09:22:00 PM 50.6891 -47.8947 60° Northeast  Level FlightAware Approximate
Mon 09:29:00 PM 51.1514 -46.5733 60° Northeast  Level FlightAware Approximate
Mon 09:30:00 PM 51.2162 -46.3824 61° Northeast  Level FlightAware Approximate
Mon 09:31:00 PM 51.2807 -46.1909 62° Northeast  Level FlightAware Approximate
Mon 09:32:00 PM 51.3428 -45.9965 63° Northeast  Level FlightAware Approximate
Mon 09:33:00 PM 51.4034 -45.8013 63° Northeast  Level FlightAware Approximate
Mon 09:34:00 PM 51.4637 -45.6056 64° Northeast  Level FlightAware Approximate
Mon 09:35:00 PM 51.5237 -45.4094 64° Northeast  Level FlightAware Approximate
Mon 09:36:00 PM 51.5834 -45.2127 64° Northeast  Level FlightAware Approximate
Mon 09:37:00 PM 51.6427 -45.0154 64° Northeast  Level FlightAware Approximate
Mon 09:38:00 PM 51.7017 -44.8177 64° Northeast  Level FlightAware Approximate
Mon 09:39:00 PM 51.7604 -44.6194 64° Northeast  Level FlightAware Approximate
Mon 09:40:00 PM 51.8187 -44.4206 65° Northeast  Level FlightAware Approximate
Mon 09:41:00 PM 51.8767 -44.2213 65° Northeast  Level FlightAware Approximate
Mon 09:42:00 PM 51.9344 -44.0215 65° Northeast  Level FlightAware Approximate
Mon 09:43:00 PM 51.9917 -43.8211 65° Northeast  Level FlightAware Approximate
Mon 09:44:00 PM 52.0488 -43.6204 65° Northeast  Level FlightAware Approximate
Mon 09:45:00 PM 52.1057 -43.4192 65° Northeast  Level FlightAware Approximate
Mon 09:46:00 PM 52.1622 -43.2175 65° Northeast  Level FlightAware Approximate
Mon 09:47:00 PM 52.2184 -43.0153 66° East  Level FlightAware Approximate
Mon 09:48:00 PM 52.2743 -42.8126 66° East  Level FlightAware Approximate
Mon 09:49:00 PM 52.3298 -42.6094 66° East  Level FlightAware Approximate
Mon 09:50:00 PM 52.3849 -42.4057 66° East  Level FlightAware Approximate
Mon 09:51:00 PM 52.4397 -42.2014 66° East  Level FlightAware Approximate
Mon 09:52:00 PM 52.4942 -41.9967 66° East  Level FlightAware Approximate
Mon 09:53:00 PM 52.5483 -41.7914 66° East  Level FlightAware Approximate
Mon 09:54:00 PM 52.6020 -41.5857 67° East  Level FlightAware Approximate
Mon 09:55:00 PM 52.6554 -41.3794 67° East  Level FlightAware Approximate
Mon 09:56:00 PM 52.7084 -41.1727 67° East  Level FlightAware Approximate
Mon 09:57:00 PM 52.7611 -40.9654 67° East  Level FlightAware Approximate
Mon 09:58:00 PM 52.8134 -40.7576 67° East  Level FlightAware Approximate
Mon 09:59:00 PM 52.8653 -40.5494 67° East  Level FlightAware Approximate
Mon 10:00:00 PM 52.9169 -40.3406 68° East  Level FlightAware Approximate
Mon 10:00:16 PM 53.0000 -40.0000 76° East 504 580 45,000  Level ETMS Enhanced Traffic Management System
Mon 10:01:00 PM 52.9681 -40.1314 68° East  Level FlightAware Approximate
Mon 10:02:00 PM 53.0116 -39.9178 77° East  Level FlightAware Approximate
Mon 10:03:00 PM 53.0422 -39.6973 77° East  Level FlightAware Approximate
Mon 10:04:00 PM 53.0725 -39.4765 77° East  Level FlightAware Approximate
Mon 10:05:00 PM 53.1023 -39.2554 77° East  Level FlightAware Approximate
Mon 10:06:00 PM 53.3065 -37.7194 78° East 504 580 45,000  Level FlightAware Transoceanic
Mon 10:07:00 PM 53.3347 -37.4896 78° East 504 580 45,000  Level FlightAware Transoceanic
Mon 10:08:00 PM 53.3625 -37.2595 79° East 504 580 45,000  Level FlightAware Transoceanic
Mon 10:09:00 PM 53.3899 -37.0290 79° East 504 580 45,000  Level FlightAware Transoceanic
Mon 10:10:00 PM 53.4168 -36.7983 79° East 504 580 45,000  Level FlightAware Transoceanic
Mon 10:11:00 PM 53.4433 -36.5673 79° East 504 580 45,000  Level FlightAware Transoceanic
Mon 10:12:00 PM 53.4693 -36.3361 79° East 504 580 45,000  Level FlightAware Transoceanic
Mon 10:13:00 PM 53.4949 -36.1045 80° East 504 580 45,000  Level FlightAware Transoceanic
Mon 10:14:00 PM 53.5200 -35.8727 80° East 504 580 45,000  Level FlightAware Transoceanic
Mon 10:15:00 PM 53.5447 -35.6406 80° East 504 580 45,000  Level FlightAware Transoceanic
Mon 10:16:00 PM 53.5689 -35.4082 80° East 504 580 45,000  Level FlightAware Transoceanic
Mon 10:17:00 PM 53.5927 -35.1755 80° East 504 580 45,000  Level FlightAware Transoceanic
Mon 10:18:00 PM 53.6160 -34.9426 81° East 504 580 45,000  Level FlightAware Transoceanic
Mon 10:19:00 PM 53.6389 -34.7095 81° East 504 580 45,000  Level FlightAware Transoceanic
Mon 10:20:00 PM 53.6613 -34.4761 81° East 504 580 45,000  Level FlightAware Transoceanic
Mon 10:21:00 PM 53.6832 -34.2424 81° East 504 580 45,000  Level FlightAware Transoceanic
Mon 10:22:00 PM 53.7047 -34.0085 81° East 504 580 45,000  Level FlightAware Transoceanic
Mon 10:23:00 PM 53.7258 -33.7744 81° East 504 580 45,000  Level FlightAware Transoceanic
Mon 10:24:00 PM 53.7464 -33.5400 82° East 504 580 45,000  Level FlightAware Transoceanic
Mon 10:25:00 PM 53.7665 -33.3054 82° East 504 580 45,000  Level FlightAware Transoceanic
Mon 10:26:00 PM 53.7862 -33.0706 82° East 504 580 45,000  Level FlightAware Transoceanic
Mon 10:27:00 PM 53.8054 -32.8356 82° East 504 580 45,000  Level FlightAware Transoceanic
Mon 10:28:00 PM 53.8242 -32.6003 82° East 504 580 45,000  Level FlightAware Transoceanic
Mon 10:29:00 PM 53.8425 -32.3649 83° East 504 580 45,000  Level FlightAware Transoceanic
Mon 10:30:00 PM 53.8603 -32.1292 83° East 504 580 45,000  Level FlightAware Transoceanic
Mon 10:31:00 PM 53.8777 -31.8934 83° East 504 580 45,000  Level FlightAware Transoceanic
Mon 10:32:00 PM 53.8946 -31.6573 83° East 504 580 45,000  Level FlightAware Transoceanic
Mon 10:33:00 PM 53.9111 -31.4211 83° East 504 580 45,000  Level FlightAware Transoceanic
Mon 10:34:00 PM 53.9271 -31.1847 84° East 504 580 45,000  Level FlightAware Transoceanic
Mon 10:35:00 PM 53.9426 -30.9481 84° East 504 580 45,000  Level FlightAware Transoceanic
Mon 10:36:00 PM 53.9576 -30.7113 84° East 504 580 45,000  Level FlightAware Transoceanic
Mon 10:37:00 PM 53.9722 -30.4744 84° East 504 580 45,000  Level FlightAware Transoceanic
Mon 10:38:00 PM 53.9863 -30.2373 84° East 504 580 45,000  Level FlightAware Transoceanic
Mon 10:39:00 PM 53.9996 -30.0069 84° East  Level FlightAware Approximate
Mon 10:40:00 PM 54.0125 -29.7763 84° East  Level FlightAware Approximate
Mon 10:41:00 PM 54.0088 -29.7827 86° East  Level FlightAware Approximate
Mon 10:42:00 PM 54.0178 -29.5516 86° East  Level FlightAware Approximate
Mon 10:42:09 PM 54.0000 -30.0000 86° East 503 579 45,000  Level ETMS Enhanced Traffic Management System
Mon 10:43:00 PM 54.0263 -29.3204 86° East  Level FlightAware Approximate
Mon 10:44:00 PM 54.0344 -29.0891 87° East  Level FlightAware Approximate
Mon 10:45:00 PM 54.0421 -28.8577 87° East  Level FlightAware Approximate
Mon 10:46:00 PM 54.0493 -28.6262 87° East  Level FlightAware Approximate
Mon 10:47:00 PM 54.0560 -28.3947 87° East  Level FlightAware Approximate
Mon 10:48:00 PM 54.0640 -28.0984 87° East 503 579 45,000  Level FlightAware Transoceanic
Mon 10:49:00 PM 54.0699 -27.8603 88° East 503 579 45,000  Level FlightAware Transoceanic
Mon 10:50:00 PM 54.0753 -27.6222 88° East 503 579 45,000  Level FlightAware Transoceanic
Mon 10:51:00 PM 54.0802 -27.3840 88° East 503 579 45,000  Level FlightAware Transoceanic
Mon 10:52:00 PM 54.0847 -27.1458 88° East 503 579 45,000  Level FlightAware Transoceanic
Mon 10:53:00 PM 54.0887 -26.9075 88° East 503 579 45,000  Level FlightAware Transoceanic
Mon 10:54:00 PM 54.0923 -26.6691 89° East 503 579 45,000  Level FlightAware Transoceanic
Mon 10:55:00 PM 54.0953 -26.4308 89° East 503 579 45,000  Level FlightAware Transoceanic
Mon 10:56:00 PM 54.0979 -26.1924 89° East 503 579 45,000  Level FlightAware Transoceanic
Mon 10:57:00 PM 54.1000 -25.9539 89° East 503 579 45,000  Level FlightAware Transoceanic
Mon 10:58:00 PM 54.1017 -25.7155 89° East 503 579 45,000  Level FlightAware Transoceanic
Mon 10:59:00 PM 54.1029 -25.4770 90° East 503 579 45,000  Level FlightAware Transoceanic
Mon 11:00:00 PM 54.1036 -25.2385 90° East 503 579 45,000  Level FlightAware Transoceanic
Mon 11:01:00 PM 54.1038 -25.0000 90° East 503 579 45,000  Level FlightAware Transoceanic
Mon 11:02:00 PM 54.1036 -24.7615 90° East 503 579 45,000  Level FlightAware Transoceanic
Mon 11:03:00 PM 54.1029 -24.5230 90° East 503 579 45,000  Level FlightAware Transoceanic
Mon 11:04:00 PM 54.1017 -24.2845 91° East 503 579 45,000  Level FlightAware Transoceanic
Mon 11:05:00 PM 54.1000 -24.0461 91° East 503 579 45,000  Level FlightAware Transoceanic
Mon 11:06:00 PM 54.0979 -23.8076 91° East 503 579 45,000  Level FlightAware Transoceanic
Mon 11:07:00 PM 54.0953 -23.5692 91° East 503 579 45,000  Level FlightAware Transoceanic
Mon 11:08:00 PM 54.0923 -23.3309 91° East 503 579 45,000  Level FlightAware Transoceanic
Mon 11:09:00 PM 54.0887 -23.0925 92° East 503 579 45,000  Level FlightAware Transoceanic
Mon 11:10:00 PM 54.0847 -22.8542 92° East 503 579 45,000  Level FlightAware Transoceanic
Mon 11:11:00 PM 54.0802 -22.6160 92° East 503 579 45,000  Level FlightAware Transoceanic
Mon 11:12:00 PM 54.0753 -22.3778 92° East 503 579 45,000  Level FlightAware Transoceanic
Mon 11:13:00 PM 54.0699 -22.1397 92° East 503 579 45,000  Level FlightAware Transoceanic
Mon 11:14:00 PM 54.0640 -21.9016 93° East 503 579 45,000  Level FlightAware Transoceanic
Mon 11:15:00 PM 54.0576 -21.6636 93° East 503 579 45,000  Level FlightAware Transoceanic
Mon 11:16:00 PM 54.0508 -21.4257 93° East 503 579 45,000  Level FlightAware Transoceanic
Mon 11:17:00 PM 54.0435 -21.1878 93° East 503 579 45,000  Level FlightAware Transoceanic
Mon 11:18:00 PM 54.0358 -20.9501 93° East 503 579 45,000  Level FlightAware Transoceanic
Mon 11:19:00 PM 54.0275 -20.7124 93° East 503 579 45,000  Level FlightAware Transoceanic
Mon 11:20:00 PM 54.0188 -20.4748 94° East 503 579 45,000  Level FlightAware Transoceanic
Mon 11:21:00 PM 54.0096 -20.2374 94° East 503 579 45,000  Level FlightAware Transoceanic
Mon 11:22:00 PM 54.0003 -20.0063 94° East  Level FlightAware Approximate
Mon 11:23:00 PM 53.9906 -19.7754 94° East  Level FlightAware Approximate
Mon 11:24:00 PM 53.9942 -19.7814 93° East  Level FlightAware Approximate
Mon 11:25:00 PM 53.9876 -19.5502 93° East  Level FlightAware Approximate
Mon 11:26:00 PM 53.9806 -19.3190 93° East  Level FlightAware Approximate
Mon 11:27:00 PM 53.9731 -19.0880 93° East  Level FlightAware Approximate
Mon 11:28:00 PM 53.9652 -18.8570 93° East  Level FlightAware Approximate
Mon 11:29:00 PM 53.9568 -18.6261 93° East  Level FlightAware Approximate
Mon 11:30:00 PM 53.9480 -18.3953 94° East  Level FlightAware Approximate
Mon 11:31:00 PM 53.9388 -18.1646 94° East  Level FlightAware Approximate
Mon 11:32:00 PM 53.9291 -17.9340 94° East  Level FlightAware Approximate
Mon 11:33:00 PM 53.9189 -17.7035 94° East  Level FlightAware Approximate
Mon 11:34:00 PM 53.9084 -17.4732 94° East  Level FlightAware Approximate
Mon 11:35:00 PM 53.8974 -17.2429 95° East  Level FlightAware Approximate
Mon 11:36:00 PM 53.8859 -17.0128 95° East  Level FlightAware Approximate
Mon 11:37:00 PM 53.8740 -16.7828 95° East  Level FlightAware Approximate
Mon 11:38:00 PM 53.8617 -16.5529 95° East  Level FlightAware Approximate
Mon 11:39:00 PM 53.8489 -16.3232 95° East  Level FlightAware Approximate
Mon 11:40:00 PM 53.8357 -16.0936 95° East  Level FlightAware Approximate
Mon 11:41:00 PM 53.8221 -15.8642 96° East  Level FlightAware Approximate
Mon 11:42:00 PM 53.8080 -15.6349 96° East  Level FlightAware Approximate
Mon 11:43:00 PM 53.7935 -15.4058 96° East  Level FlightAware Approximate
Mon 11:44:00 PM 53.7785 -15.1768 96° East  Level FlightAware Approximate
Mon 11:45:00 PM 53.7633 -14.9480 96° East  Level FlightAware Approximate
Mon 11:46:00 PM 53.7480 -14.7192 96° East  Level FlightAware Approximate
Mon 11:47:00 PM 53.7323 -14.4907 97° East  Level FlightAware Approximate
Mon 11:48:00 PM 53.7162 -14.2622 97° East  Level FlightAware Approximate
Mon 11:49:00 PM 53.6997 -14.0340 97° East  Level FlightAware Approximate
Mon 11:50:00 PM 53.6827 -13.8060 97° East  Level FlightAware Approximate
Mon 11:51:00 PM 53.6653 -13.5781 97° East  Level FlightAware Approximate
Mon 11:52:00 PM 53.6475 -13.3504 97° East  Level FlightAware Approximate
Mon 11:53:00 PM 53.6292 -13.1229 98° East  Level FlightAware Approximate
Mon 11:54:00 PM 53.6105 -12.8957 98° East  Level FlightAware Approximate
Mon 11:55:00 PM 53.5913 -12.6686 98° East  Level FlightAware Approximate
Mon 11:56:00 PM 53.5718 -12.4417 98° East  Level FlightAware Approximate
Mon 11:57:00 PM 53.5516 -12.2151 98° East  Level FlightAware Approximate
Mon 11:58:00 PM 53.5310 -11.9888 99° East  Level FlightAware Approximate
Mon 11:59:00 PM 53.5099 -11.7626 99° East  Level FlightAware Approximate
Tue 12:00:00 AM 53.4885 -11.5367 99° East  Level FlightAware Approximate
Tue 12:01:00 AM 53.4665 -11.3110 99° East  Level FlightAware Approximate
Tue 12:02:00 AM 53.4442 -11.0855 99° East  Level FlightAware Approximate
Tue 12:03:00 AM 53.4215 -10.8603 100° East  Level FlightAware Approximate
Tue 12:04:00 AM 53.3983 -10.6353 100° East  Level FlightAware Approximate
Tue 12:05:00 AM 53.3747 -10.4105 100° East  Level FlightAware Approximate
Tue 12:06:00 AM 53.3507 -10.1861 100° East  Level FlightAware Approximate
Tue 12:07:00 AM 53.3262 -9.9618 100° East  Level FlightAware Approximate
Tue 12:08:00 AM 53.3013 -9.7379 100° East  Level FlightAware Approximate
Tue 12:09:00 AM 53.2760 -9.5141 101° East  Level FlightAware Approximate
Tue 12:10:00 AM 53.2503 -9.2907 101° East  Level FlightAware Approximate
Tue 12:11:00 AM 53.2242 -9.0675 101° East  Level FlightAware Approximate
Tue 12:12:00 AM 53.1977 -8.8446 101° East  Level FlightAware Approximate
Tue 12:12:02 AM 52.9480 -9.0020 101° East 478 550 45,000  Level FlightAware UK
Tue 12:12:32 AM 52.9254 -8.8973 110° East 478 550 45,000  Level FlightAware UK
Tue 12:13:02 AM 52.9021 -8.7914 110° East 478 550 45,000  Level FlightAware UK
Tue 12:13:32 AM 52.8786 -8.6853 110° East 474 545 45,000  Level FlightAware UK
Tue 12:14:02 AM 52.8549 -8.5786 110° East 476 548 45,000  Level FlightAware UK
Tue 12:14:32 AM 52.8310 -8.4726 110° East 476 548 45,000  Level FlightAware UK
Tue 12:15:02 AM 52.8069 -8.3658 110° East 474 545 45,000  Level FlightAware UK
Tue 12:15:32 AM 52.7826 -8.2578 110° East 480 552 45,000  Level FlightAware UK
Tue 12:16:02 AM 52.7580 -8.1483 110° East 482 555 45,000  Level FlightAware UK
Tue 12:16:32 AM 52.7333 -8.0411 111° Southeast 480 552 45,000  Level FlightAware UK
Tue 12:17:03 AM 52.7085 -7.9337 111° Southeast 478 550 45,000  Level FlightAware UK
Tue 12:17:33 AM 52.6838 -7.8270 111° Southeast 470 541 45,000  Level FlightAware UK
Tue 12:18:03 AM 52.6592 -7.7204 111° Southeast 476 548 45,000  Level FlightAware UK
Tue 12:18:33 AM 52.6344 -7.6133 111° Southeast 482 555 45,000  Level FlightAware UK
Tue 12:19:03 AM 52.6091 -7.5059 111° Southeast 482 555 45,000  Level FlightAware UK
Tue 12:19:33 AM 52.5835 -7.3977 111° Southeast 478 550 45,000  Level FlightAware UK
Tue 12:20:03 AM 52.5575 -7.2887 111° Southeast 484 557 45,000  Level FlightAware UK
Tue 12:20:33 AM 52.5315 -7.1800 111° Southeast 482 555 45,000  Level FlightAware UK
Tue 12:21:03 AM 52.5058 -7.0708 111° Southeast 482 555 45,000  Level FlightAware UK
Tue 12:21:33 AM 52.4796 -6.9619 112° Southeast 482 555 45,000  Level FlightAware UK
Tue 12:22:03 AM 52.4535 -6.8545 112° Southeast 484 557 45,000  Level FlightAware UK
Tue 12:22:33 AM 52.4274 -6.7476 112° Southeast 478 550 45,000  Level FlightAware UK
Tue 12:23:03 AM 52.4013 -6.6410 112° Southeast 482 555 45,000  Level FlightAware UK
Tue 12:23:33 AM 52.3752 -6.5342 112° Southeast 482 555 45,000  Level FlightAware UK
Tue 12:24:09 AM 52.3433 -6.4053 112° Southeast 486 559 45,000  Level FlightAware UK
Tue 12:24:39 AM 52.3168 -6.2986 112° Southeast 484 557 45,000  Level FlightAware UK
Tue 12:25:09 AM 52.2903 -6.1927 112° Southeast 480 552 45,000  Level FlightAware UK
Tue 12:25:39 AM 52.2639 -6.0866 112° Southeast 474 545 45,000  Level FlightAware UK
Tue 12:26:09 AM 52.2374 -5.9815 112° Southeast 476 548 45,000  Level FlightAware UK
Tue 12:26:39 AM 52.2105 -5.8757 113° Southeast 482 555 45,000  Level FlightAware UK
Tue 12:27:15 AM 52.1777 -5.7470 112° Southeast 488 562 45,000  Level FlightAware UK
Tue 12:27:45 AM 52.1506 -5.6407 113° Southeast 482 555 45,000  Level FlightAware UK
Tue 12:28:15 AM 52.1308 -5.5332 107° East 480 552 45,000  Level FlightAware UK
Tue 12:28:42 AM 52.1212 -5.4352 107° East 493 567 45,000  Level FlightAware ADS-B
Tue 12:29:16 AM 52.1101 -5.3126 107° East 482 555 45,000  Level FlightAware UK
Tue 12:29:35 AM 52.1040 -5.2460 107° East 489 563 45,000  Level FlightAware ADS-B
Tue 12:30:28 AM 52.0862 -5.0525 107° East 478 550 45,000  Level FlightAware UK
Tue 12:30:38 AM 52.0825 -5.0143 107° East 489 563 45,000  Level FlightAware ADS-B
Tue 12:31:28 AM 52.0657 -4.8352 107° East 478 550 45,000  Level FlightAware UK
Tue 12:31:32 AM 52.0639 -4.8185 107° East 495 570 45,000  Level FlightAware ADS-B
Tue 12:32:04 AM 52.0528 -4.7030 99° East 500 575 45,000  Level FlightAware ADS-B
Tue 12:32:37 AM 52.0409 -4.5808 99° East 502 578 45,000  Level FlightAware ADS-B
Tue 12:33:07 AM 52.0298 -4.4680 99° East 502 578 45,000  Level FlightAware ADS-B
Tue 12:33:58 AM 52.0111 -4.2790 99° East 480 552 45,000  Level FlightAware UK
Tue 12:34:21 AM 52.0026 -4.1953 99° East 502 578 45,000  Level FlightAware ADS-B
Tue 12:34:53 AM 51.9902 -4.0739 99° East 507 583 45,000  Level FlightAware ADS-B
Tue 12:35:34 AM 51.9748 -3.9219 99° East 486 559 45,000  Level FlightAware UK
Tue 12:35:40 AM 51.9721 -3.8989 99° East 508 585 45,000  Level FlightAware ADS-B
Tue 12:36:34 AM 51.9510 -3.6972 99° East 482 555 45,000  Level FlightAware UK
Tue 12:36:36 AM 51.9503 -3.6906 99° East 506 582 45,000  Level FlightAware ADS-B
Tue 12:37:08 AM 51.9377 -3.5722 100° East 507 583 45,000  Level FlightAware ADS-B
Tue 12:37:38 AM 51.9256 -3.4590 100° East 507 583 45,000  Level FlightAware ADS-B
Tue 12:38:10 AM 51.9127 -3.3403 100° East 504 580 45,000  Level FlightAware ADS-B
Tue 12:38:40 AM 51.9006 -3.2296 100° East 502 578 45,000  Level FlightAware ADS-B
Tue 12:39:10 AM 51.8883 -3.1187 100° East 500 575 45,000  Level FlightAware ADS-B
Tue 12:39:40 AM 51.8760 -3.0087 100° East 482 555 45,000  Level FlightAware UK
Tue 12:39:40 AM 51.8760 -3.0082 100° East 498 573 45,000  Level FlightAware ADS-B
Tue 12:40:10 AM 51.8637 -2.8985 100° East 480 552 45,000  Level FlightAware UK
Tue 12:40:11 AM 51.8635 -2.8971 100° East 499 574 45,000  Level FlightAware ADS-B
Tue 12:40:43 AM 51.8501 -2.7791 100° East 501 577 45,000  Level FlightAware ADS-B
Tue 12:41:14 AM 51.8372 -2.6664 100° East 503 579 45,000  Level FlightAware ADS-B
Tue 12:41:44 AM 51.8242 -2.5542 101° East 506 582 45,000  Level FlightAware ADS-B
Tue 12:42:15 AM 51.8111 -2.4410 101° East 505 581 45,000  Level FlightAware ADS-B
Tue 12:42:45 AM 51.7978 -2.3289 101° East 505 581 45,000  Level FlightAware ADS-B
Tue 12:43:15 AM 51.7847 -2.2183 101° East 504 580 45,000  Level FlightAware ADS-B
Tue 12:43:46 AM 51.7712 -2.1057 101° East 504 580 45,000  Level FlightAware ADS-B
Tue 12:44:16 AM 51.7579 -1.9946 101° East 503 579 45,000  Level FlightAware ADS-B
Tue 12:44:47 AM 51.7439 -1.8795 101° East 502 578 45,000  Level FlightAware ADS-B
Tue 12:45:17 AM 51.7304 -1.7697 101° East 502 578 45,000  Level FlightAware ADS-B
Tue 12:45:47 AM 51.7168 -1.6595 101° East 505 581 45,000  Level FlightAware ADS-B
Tue 12:46:17 AM 51.7029 -1.5481 101° East 509 586 45,000  Level FlightAware ADS-B
Tue 12:46:17 AM 51.7032 -1.5502 101° East 484 557 45,000  Level FlightAware UK
Tue 12:46:47 AM 51.6891 -1.4379 101° East 486 559 45,000  Level FlightAware UK
Tue 12:46:48 AM 51.6885 -1.4339 101° East 509 586 45,000  Level FlightAware ADS-B
Tue 12:47:19 AM 51.6742 -1.3212 102° East 510 587 45,000  Level FlightAware ADS-B
Tue 12:47:49 AM 51.6597 -1.2078 102° East 510 587 45,000  Level FlightAware ADS-B
Tue 12:48:20 AM 51.6451 -1.0946 102° East 510 587 45,000  Level FlightAware ADS-B
Tue 12:48:50 AM 51.6305 -0.9816 102° East 509 586 45,000  Level FlightAware ADS-B
Tue 12:49:21 AM 51.6159 -0.8704 102° East 508 585 45,000  Level FlightAware ADS-B
Tue 12:49:51 AM 51.6013 -0.7593 102° East 507 583 45,000  Level FlightAware ADS-B
Tue 12:50:21 AM 51.5865 -0.6486 102° East 505 581 45,000  Level FlightAware ADS-B
Tue 12:50:51 AM 51.5718 -0.5390 102° East 505 581 45,000  Level FlightAware ADS-B
Tue 12:51:23 AM 51.5560 -0.4213 102° East 506 582 45,000  Level FlightAware ADS-B
Tue 12:51:54 AM 51.5406 -0.3084 102° East 508 585 45,000  Level FlightAware ADS-B
Tue 12:52:25 AM 51.5250 -0.1947 102° East 508 585 45,000  Level FlightAware ADS-B
Tue 12:52:55 AM 51.5098 -0.0846 102° East 508 585 45,000  Level FlightAware ADS-B
Tue 12:53:26 AM 51.4942 0.0269 103° East 508 585 45,000  Level FlightAware ADS-B
Tue 12:53:56 AM 51.4788 0.1369 103° East 508 585 45,000  Level FlightAware ADS-B
Tue 12:54:29 AM 51.4612 0.2614 103° East 509 586 45,000  Level FlightAware ADS-B
Tue 12:55:00 AM 51.4453 0.3727 103° East 509 586 45,000  Level FlightAware ADS-B
Tue 12:55:31 AM 51.4291 0.4858 103° East 510 587 45,000  Level FlightAware ADS-B
Tue 12:56:01 AM 51.4131 0.5959 103° East 511 588 45,000  Level FlightAware ADS-B
Tue 12:56:32 AM 51.3961 0.7125 103° East 511 588 45,000  Level FlightAware ADS-B
Tue 12:57:04 AM 51.3791 0.8283 103° East 510 587 45,000  Level FlightAware ADS-B
Tue 12:57:34 AM 51.3629 0.9380 103° East 510 587 45,000  Level FlightAware ADS-B
Tue 12:58:05 AM 51.3463 1.0499 103° East 511 588 45,000  Level FlightAware ADS-B
Tue 12:58:35 AM 51.3293 1.1629 104° East 512 589 45,000  Level FlightAware ADS-B
Tue 12:59:07 AM 51.3120 1.2778 104° East 510 587 45,000  Level FlightAware ADS-B
Tue 12:59:38 AM 51.2948 1.3906 104° East 509 586 45,000  Level FlightAware ADS-B
Tue 01:00:08 AM 51.2777 1.5001 104° East 509 586 45,000  Level FlightAware ADS-B
Tue 01:00:21 AM 51.2681 1.5448 109° East 511 588 45,000  Level FlightAware ADS-B
Tue 01:00:52 AM 51.2386 1.6519 114° Southeast 515 593 45,000  Level FlightAware ADS-B
Tue 01:01:23 AM 51.2077 1.7611 114° Southeast 516 594 45,000  Level FlightAware ADS-B
Tue 01:01:54 AM 51.1774 1.8685 114° Southeast 513 590 45,000  Level FlightAware ADS-B
Tue 01:02:37 AM 51.1366 2.0138 114° Southeast 482 555 45,000  Level FlightAware UK
Tue 01:02:41 AM 51.1327 2.0259 114° Southeast 509 586 45,000  Level FlightAware ADS-B
Tue 01:03:37 AM 51.0779 2.2177 114° Southeast 509 586 45,000  Level FlightAware ADS-B
Tue 01:04:07 AM 51.0484 2.3202 114° Southeast 488 562 45,000  Level FlightAware UK
Tue 01:04:10 AM 51.0453 2.3312 114° Southeast 518 596 45,000  Level FlightAware ADS-B
Tue 01:04:41 AM 51.0142 2.4390 115° Southeast 519 597 45,000  Level FlightAware ADS-B
Tue 01:05:12 AM 50.9837 2.5441 115° Southeast 520 598 45,000  Level FlightAware ADS-B
Tue 01:05:42 AM 50.9535 2.6479 115° Southeast 518 596 45,000  Level FlightAware ADS-B
Tue 01:06:12 AM 50.9236 2.7503 115° Southeast 513 590 45,000  Level FlightAware ADS-B
Tue 01:06:43 AM 50.8926 2.8557 115° Southeast 511 588 45,000  Level FlightAware ADS-B
Tue 01:07:13 AM 50.8633 2.9576 115° Southeast 484 557 45,000  Level FlightAware UK
Tue 01:07:15 AM 50.8609 2.9632 115° Southeast 508 585 45,000  Level FlightAware ADS-B
Tue 01:07:49 AM 50.8272 3.0781 115° Southeast 484 557 45,000  Level FlightAware UK
Tue 01:07:52 AM 50.8244 3.0864 115° Southeast 511 588 45,000  Level FlightAware ADS-B
Tue 01:08:49 AM 50.7664 3.2814 115° Southeast 488 562 45,000  Level FlightAware UK
Tue 01:09:19 AM 50.7360 3.3830 115° Southeast 490 564 45,000  Level FlightAware UK
Tue 01:09:49 AM 50.7055 3.4844 115° Southeast 486 559 45,000  Level FlightAware UK
Tue 01:10:19 AM 50.6749 3.5851 116° Southeast 484 557 45,000  Level FlightAware UK
Tue 01:10:49 AM 50.6441 3.6851 116° Southeast 486 559 45,000  Level FlightAware UK
Tue 01:11:19 AM 50.6137 3.7852 116° Southeast 488 562 45,000 -800 Level FlightAware UK
Tue 01:11:49 AM 50.5834 3.8851 115° Southeast 484 557 44,200 -2,200 Descending FlightAware UK
Tue 01:12:19 AM 50.5530 3.9850 116° Southeast 480 552 42,800 -2,700 Descending FlightAware UK
Tue 01:12:49 AM 50.5220 4.0845 116° Southeast 480 552 41,500 -2,700 Descending FlightAware UK
Tue 01:13:19 AM 50.4905 4.1837 117° Southeast 486 559 40,100 -2,852 Descending FlightAware UK
Tue 01:13:50 AM 50.4582 4.2830 117° Southeast 484 557 38,600 -2,951 Descending FlightAware UK
Tue 01:14:20 AM 50.4263 4.3818 117° Southeast 486 559 37,100 -3,000 Descending FlightAware UK
Tue 01:16:00 AM 50.3006 4.6778 124° Southeast  Level Estimated
Tue 01:23:00 AM 49.7648 5.9042 124° Southeast  Level Estimated
Tue 01:24:00 AM 49.6872 6.0771 125° Southeast  Level Estimated
Tue 01:25:00 AM 49.6266 6.2115 125° Southeast  Level Estimated
Tue 01:26:00 AM 49.6266 6.2115 201° Southwest  Level Estimated
Tue 01:27:00 AM 49.6266 6.2115 201° Southwest  Level Estimated
Tue 01:28:00 AM 49.6266 6.2115 201° Southwest  Level Estimated
Tue 01:29:00 AM 49.6266 6.2115 201° Southwest  Level Estimated
Tue 01:30:00 AM 49.6266 6.2115 201° Southwest  Level Estimated
Tue 01:31:00 AM 49.6266 6.2115 201° Southwest  Level Estimated
Tue 01:32:00 AM 49.6266 6.2115 201° Southwest  Level Estimated
Tue 01:33:00 AM 49.6266 6.2115 201° Southwest  Level Estimated
Tue 01:34:00 AM 49.6266 6.2115 201° Southwest  Level Estimated
Tue 01:35:00 AM 49.6266 6.2115 201° Southwest  Level Estimated
Tue 01:36:00 AM 49.6266 6.2115 201° Southwest  Level Estimated
Tue 01:37:00 AM 49.6266 6.2115 201° Southwest  Level Estimated
Tue 01:38:00 AM 49.6266 6.2115 201° Southwest  Level Estimated
Tue 01:39:00 AM 49.6266 6.2115 201° Southwest  Level Estimated
Tue 01:40:00 AM 49.6266 6.2115 201° Southwest  Level Estimated
Tue 01:41:00 AM 49.6266 6.2115 201° Southwest  Level Estimated
Tue 01:42:00 AM 49.6266 6.2115 201° Southwest  Level Estimated
Tue 01:43:00 AM 49.6266 6.2115 201° Southwest  Level Estimated
Tue 01:44:00 AM 49.6266 6.2115 201° Southwest  Level Estimated
Tue 01:45:00 AM 49.6266 6.2115 201° Southwest  Level Estimated
Tue 01:46:00 AM 49.6266 6.2115 201° Southwest  Level Estimated
Tue 01:47:00 AM 49.6266 6.2115 201° Southwest  Level Estimated
Tue 01:48:00 AM 49.6266 6.2115 201° Southwest  Level Estimated
Tue 01:49:00 AM 49.6266 6.2115 201° Southwest  Level Estimated
Tue 01:50:00 AM 49.6266 6.2115 201° Southwest  Level Estimated

Login

Don't have an account? Register now (free) for customized features, flight alerts, and more!